Time;durP1;ratioP1;P1;durP2;ratioP2;P2;SDS_P1;SDS_P2;PMS_P1;PMS_P2;Temp;Humidity;BMP_temperature;BMP_pressure;BME280_temperature;BME280_humidity;BME280_pressure;Samples;Min_cycle;Max_cycle;Signal;HPM_P1;HPM_P2
2023/05/25 00:01:23;;;;;;;5.45;2.70;;;8.50;99.90;;;;;;5011176;28;20202;-71
2023/05/25 00:03:51;;;;;;;3.80;2.58;;;8.50;99.90;;;;;;5010738;28;20202;-71
2023/05/25 00:06:18;;;;;;;5.35;2.15;;;8.60;99.90;;;;;;5010988;28;20204;-71
2023/05/25 00:08:45;;;;;;;6.28;2.28;;;8.60;99.90;;;;;;5010451;28;20677;-71
2023/05/25 00:11:12;;;;;;;3.53;2.30;;;8.60;99.90;;;;;;5010535;28;20225;-71
2023/05/25 00:13:40;;;;;;;2.25;2.05;;;8.70;99.90;;;;;;5010923;28;20213;-71
2023/05/25 00:16:07;;;;;;;4.20;2.15;;;8.70;99.90;;;;;;5010515;28;20210;-71
2023/05/25 00:18:36;;;;;;;6.28;2.35;;;8.70;99.90;;;;;;5010179;28;20215;-70
2023/05/25 00:21:05;;;;;;;2.45;2.05;;;8.70;99.90;;;;;;5010448;28;20198;-71
2023/05/25 00:23:32;;;;;;;3.38;2.42;;;8.70;99.90;;;;;;5010789;28;20194;-71
2023/05/25 00:25:59;;;;;;;4.60;2.20;;;8.60;99.90;;;;;;5010458;28;20203;-70
2023/05/25 00:28:26;;;;;;;2.60;2.20;;;8.60;99.90;;;;;;5010471;28;20226;-71
2023/05/25 00:30:54;;;;;;;3.95;2.42;;;8.50;99.90;;;;;;5010279;28;20218;-71
2023/05/25 00:33:21;;;;;;;4.10;2.10;;;8.50;99.90;;;;;;5010371;28;20697;-71
2023/05/25 00:35:48;;;;;;;3.20;2.10;;;8.50;99.90;;;;;;5010963;28;20206;-71
2023/05/25 00:38:16;;;;;;;6.90;2.35;;;8.50;99.90;;;;;;5002193;28;20222;-70
2023/05/25 00:40:43;;;;;;;3.25;2.80;;;8.50;99.90;;;;;;5017500;28;20206;-71
2023/05/25 00:43:11;;;;;;;3.20;2.58;;;8.50;99.90;;;;;;5029860;28;20210;-71
2023/05/25 00:45:38;;;;;;;3.55;2.45;;;8.50;99.90;;;;;;5030150;28;20206;-71
2023/05/25 00:48:06;;;;;;;3.60;2.08;;;8.50;99.90;;;;;;5029399;28;20709;-71
2023/05/25 00:50:38;;;;;;;3.05;2.50;;;8.50;99.90;;;;;;5029982;28;20197;-71
2023/05/25 00:53:05;;;;;;;3.17;2.28;;;8.60;99.90;;;;;;5030113;28;20209;-71
2023/05/25 00:55:36;;;;;;;2.50;2.30;;;8.60;99.90;;;;;;5033764;28;20623;-70
2023/05/25 00:58:04;;;;;;;2.95;2.30;;;8.60;99.90;;;;;;5033578;28;20225;-71
2023/05/25 01:00:33;;;;;;;2.25;2.05;;;8.60;99.90;;;;;;5033922;28;20252;-71
2023/05/25 01:03:04;;;;;;;3.40;2.40;;;8.60;99.90;;;;;;5033640;28;20205;-71
2023/05/25 01:05:34;;;;;;;6.40;2.78;;;8.60;99.90;;;;;;5034120;28;20579;-71
2023/05/25 01:08:03;;;;;;;3.78;2.40;;;8.50;99.90;;;;;;5033400;28;20308;-71
2023/05/25 01:10:32;;;;;;;2.25;2.05;;;8.50;99.90;;;;;;5033657;28;20727;-71
2023/05/25 01:13:01;;;;;;;4.60;2.25;;;8.50;99.90;;;;;;5033637;28;20202;-71
2023/05/25 01:15:30;;;;;;;3.13;2.20;;;8.40;99.90;;;;;;5033916;28;20209;-70
2023/05/25 01:17:58;;;;;;;6.55;2.25;;;8.30;99.90;;;;;;5033325;28;20221;-71
2023/05/25 01:20:26;;;;;;;4.65;2.33;;;8.30;99.90;;;;;;5033928;28;20202;-71
2023/05/25 01:22:57;;;;;;;4.60;2.42;;;8.20;99.90;;;;;;5033636;28;20202;-71
2023/05/25 01:25:27;;;;;;;6.43;2.88;;;8.20;99.90;;;;;;5033615;28;20209;-71
2023/05/25 01:27:57;;;;;;;4.65;2.92;;;8.20;99.90;;;;;;5033595;28;20592;-71
2023/05/25 01:30:26;;;;;;;6.13;2.10;;;8.10;99.90;;;;;;5033056;28;20525;-71
2023/05/25 01:32:53;;;;;;;3.30;2.50;;;8.00;99.90;;;;;;5033518;28;20206;-71
2023/05/25 01:35:21;;;;;;;2.85;1.85;;;8.00;99.90;;;;;;5033378;28;20570;-71
2023/05/25 01:37:51;;;;;;;3.35;2.05;;;8.00;99.90;;;;;;5033468;28;20222;-71
2023/05/25 01:40:19;;;;;;;4.00;2.20;;;8.00;99.90;;;;;;5033041;28;20198;-71
2023/05/25 01:42:46;;;;;;;2.92;2.20;;;7.90;99.90;;;;;;5033569;28;20202;-71
2023/05/25 01:45:14;;;;;;;3.30;2.75;;;7.90;99.90;;;;;;5033032;28;20208;-71
2023/05/25 01:47:49;;;;;;;3.50;2.95;;;7.90;99.90;;;;;;5033196;28;20762;-71
2023/05/25 01:50:24;;;;;;;3.85;2.72;;;7.80;99.90;;;;;;5032539;28;20205;-70
2023/05/25 01:52:56;;;;;;;2.63;2.30;;;7.80;99.90;;;;;;5033403;28;20236;-70
2023/05/25 01:55:27;;;;;;;2.45;2.10;;;7.80;99.90;;;;;;5033199;28;20202;-71
2023/05/25 01:57:56;;;;;;;4.68;2.78;;;7.70;99.90;;;;;;5033092;28;20311;-71
2023/05/25 02:00:25;;;;;;;5.68;3.28;;;7.70;99.90;;;;;;5032769;28;20212;-69
2023/05/25 02:02:53;;;;;;;4.85;2.45;;;7.60;99.90;;;;;;5033120;28;20224;-70
2023/05/25 02:05:20;;;;;;;4.47;2.72;;;7.60;99.90;;;;;;5032730;28;20201;-70
2023/05/25 02:07:47;;;;;;;8.52;2.55;;;7.60;99.90;;;;;;5032920;28;20253;-70
2023/05/25 02:10:14;;;;;;;2.83;2.10;;;7.60;99.90;;;;;;5021219;28;20202;-70
2023/05/25 02:12:42;;;;;;;4.10;2.25;;;7.50;99.90;;;;;;5013154;28;20202;-70
2023/05/25 02:15:10;;;;;;;3.42;2.55;;;7.50;99.90;;;;;;5012772;28;20314;-71
2023/05/25 02:17:37;;;;;;;5.97;2.25;;;7.50;99.90;;;;;;5013341;28;20301;-71
2023/05/25 02:20:05;;;;;;;3.70;2.47;;;7.50;99.90;;;;;;5012332;28;20218;-70
2023/05/25 02:22:32;;;;;;;4.25;2.65;;;7.50;99.90;;;;;;5013080;28;20563;-70
2023/05/25 02:24:59;;;;;;;4.95;2.90;;;7.50;99.90;;;;;;5012625;28;20214;-70
2023/05/25 02:27:25;;;;;;;5.60;3.22;;;7.50;99.90;;;;;;5012751;28;20590;-71
2023/05/25 02:29:53;;;;;;;11.18;3.42;;;7.50;99.90;;;;;;5012164;28;20217;-70
2023/05/25 02:32:21;;;;;;;3.65;2.53;;;7.50;99.90;;;;;;5012476;28;21028;-70
2023/05/25 02:34:47;;;;;;;3.28;2.30;;;7.40;99.90;;;;;;5012722;28;20675;-70
2023/05/25 02:37:14;;;;;;;6.18;2.90;;;7.50;99.90;;;;;;5011976;28;20222;-70
2023/05/25 02:39:41;;;;;;;4.82;2.58;;;7.50;99.90;;;;;;5012132;28;20214;-70
2023/05/25 02:42:07;;;;;;;2.97;2.50;;;7.50;99.90;;;;;;5030235;28;20565;-69
2023/05/25 02:44:34;;;;;;;3.25;2.58;;;7.50;99.90;;;;;;5032223;28;20206;-70
2023/05/25 02:47:02;;;;;;;3.50;2.90;;;7.50;99.90;;;;;;5031845;28;20237;-70
2023/05/25 02:49:29;;;;;;;4.35;2.80;;;7.50;99.90;;;;;;5031588;28;20198;-70
2023/05/25 02:51:56;;;;;;;5.63;2.70;;;7.50;99.90;;;;;;5032100;28;20228;-69
2023/05/25 02:54:23;;;;;;;5.15;2.83;;;7.40;99.90;;;;;;5031891;28;20208;-70
2023/05/25 02:56:49;;;;;;;10.23;4.10;;;7.40;99.90;;;;;;5032255;28;20234;-70
2023/05/25 02:59:16;;;;;;;11.95;2.75;;;7.40;99.90;;;;;;5020224;28;20222;-70
2023/05/25 03:01:43;;;;;;;5.85;3.08;;;7.30;99.90;;;;;;5012323;28;20203;-70
2023/05/25 03:04:11;;;;;;;4.85;2.95;;;7.30;99.90;;;;;;5011749;28;20202;-70
2023/05/25 03:06:38;;;;;;;5.65;3.42;;;7.30;99.90;;;;;;5011970;28;20237;-70
2023/05/25 03:09:05;;;;;;;4.47;2.75;;;7.20;99.90;;;;;;5011248;28;20202;-71
2023/05/25 03:11:32;;;;;;;3.30;2.65;;;7.20;99.90;;;;;;5011886;28;20202;-70
2023/05/25 03:13:59;;;;;;;2.97;2.67;;;7.10;99.90;;;;;;5011626;28;20716;-70
2023/05/25 03:16:26;;;;;;;3.65;3.13;;;7.10;99.90;;;;;;5010795;28;20711;-70
2023/05/25 03:18:52;;;;;;;4.55;3.20;;;7.10;99.90;;;;;;5011232;28;20218;-70
2023/05/25 03:21:21;;;;;;;5.95;3.45;;;7.10;99.90;;;;;;5011439;28;20206;-70
2023/05/25 03:23:48;;;;;;;3.05;2.70;;;7.10;99.90;;;;;;5011872;28;20198;-70
2023/05/25 03:26:16;;;;;;;6.30;2.83;;;7.10;99.90;;;;;;5011359;28;20203;-69
2023/05/25 03:28:43;;;;;;;4.63;3.10;;;7.00;99.90;;;;;;5011237;28;20218;-70
2023/05/25 03:31:10;;;;;;;3.58;1.95;;;7.00;99.90;;;;;;5011203;28;20217;-70
2023/05/25 03:33:37;;;;;;;5.20;2.45;;;7.00;99.90;;;;;;5011811;28;20558;-69
2023/05/25 03:36:07;;;;;;;4.43;2.75;;;7.00;99.90;;;;;;5011485;28;20202;-69
2023/05/25 03:38:36;;;;;;;6.38;3.10;;;7.00;99.90;;;;;;5011175;28;20250;-69
2023/05/25 03:41:03;;;;;;;4.63;3.47;;;6.90;99.90;;;;;;5028247;28;20208;-70
2023/05/25 03:43:29;;;;;;;5.57;2.28;;;7.00;99.90;;;;;;5018762;28;20210;-70
2023/05/25 03:45:56;;;;;;;3.10;2.47;;;7.00;99.90;;;;;;5011617;28;20637;-70
2023/05/25 03:48:23;;;;;;;4.38;3.72;;;7.00;99.90;;;;;;5010721;28;20249;-70
2023/05/25 03:50:50;;;;;;;6.05;3.20;;;7.00;99.90;;;;;;5011064;28;20935;-69
2023/05/25 03:53:16;;;;;;;3.08;2.78;;;7.00;99.90;;;;;;5011026;28;20202;-70
2023/05/25 03:55:44;;;;;;;3.75;2.92;;;7.10;99.90;;;;;;5011406;28;20202;-70
2023/05/25 03:58:11;;;;;;;4.43;2.40;;;7.10;99.90;;;;;;5010627;28;20218;-70
2023/05/25 04:00:38;;;;;;;3.28;2.50;;;7.10;99.90;;;;;;5011005;28;20226;-70
2023/05/25 04:03:05;;;;;;;7.78;2.70;;;7.10;99.90;;;;;;5028239;28;20206;-71
2023/05/25 04:05:32;;;;;;;4.85;2.63;;;7.10;99.90;;;;;;5030879;28;20666;-70
2023/05/25 04:07:59;;;;;;;4.57;3.33;;;7.10;99.90;;;;;;5030687;28;20237;-69
2023/05/25 04:10:25;;;;;;;4.18;2.78;;;7.10;99.90;;;;;;5030279;28;20228;-70
2023/05/25 04:12:55;;;;;;;5.00;2.80;;;7.10;99.90;;;;;;5030778;28;20224;-70
2023/05/25 04:15:22;;;;;;;6.57;3.45;;;7.10;99.90;;;;;;5029482;28;20931;-69
2023/05/25 04:17:48;;;;;;;6.30;3.20;;;7.20;99.90;;;;;;5016247;28;20226;-70
2023/05/25 04:20:15;;;;;;;10.30;3.95;;;7.30;99.90;;;;;;5019758;28;20225;-69
2023/05/25 04:22:43;;;;;;;6.07;3.60;;;7.30;99.90;;;;;;5017042;28;20206;-69
2023/05/25 04:25:10;;;;;;;3.63;2.60;;;7.40;99.90;;;;;;5010467;28;20234;-70
2023/05/25 04:27:37;;;;;;;6.32;3.65;;;7.40;99.90;;;;;;5023574;28;20217;-69
2023/05/25 04:30:07;;;;;;;8.70;3.40;;;7.50;99.90;;;;;;5029796;28;20205;-69
2023/05/25 04:32:36;;;;;;;4.95;3.65;;;7.60;99.90;;;;;;5010903;28;20588;-70
2023/05/25 04:35:04;;;;;;;3.25;2.95;;;7.60;99.90;;;;;;5019265;28;20203;-69
2023/05/25 04:37:31;;;;;;;4.10;3.38;;;7.70;99.90;;;;;;5010340;28;20361;-69
2023/05/25 04:39:58;;;;;;;10.07;3.55;;;7.70;99.90;;;;;;5010132;28;20226;-70
2023/05/25 04:42:25;;;;;;;4.20;3.00;;;7.80;99.90;;;;;;5009957;28;20712;-70
2023/05/25 04:44:55;;;;;;;4.90;3.65;;;7.80;99.90;;;;;;5010198;28;20202;-70
2023/05/25 04:47:24;;;;;;;8.30;3.75;;;7.90;99.90;;;;;;5009771;28;20222;-70
2023/05/25 04:49:51;;;;;;;4.05;3.15;;;7.90;99.90;;;;;;5024712;28;20259;-69
2023/05/25 04:52:18;;;;;;;5.40;3.22;;;8.00;99.90;;;;;;5029644;28;20573;-70
2023/05/25 04:54:45;;;;;;;3.78;3.15;;;8.10;99.90;;;;;;5030072;28;20202;-69
2023/05/25 04:57:12;;;;;;;5.88;3.60;;;8.10;99.90;;;;;;5013304;28;20226;-70
2023/05/25 04:59:39;;;;;;;3.30;2.55;;;8.20;99.90;;;;;;5029687;28;20296;-71
2023/05/25 05:02:05;;;;;;;5.55;2.92;;;8.20;99.90;;;;;;5021649;28;20202;-71
2023/05/25 05:04:33;;;;;;;3.95;3.13;;;8.30;99.90;;;;;;5010398;28;20202;-71
2023/05/25 05:07:00;;;;;;;3.97;2.67;;;8.30;99.90;;;;;;5010474;28;20777;-71
2023/05/25 05:09:27;;;;;;;9.25;3.30;;;8.40;99.90;;;;;;5012511;28;20248;-71
2023/05/25 05:11:53;;;;;;;4.80;3.70;;;8.40;99.90;;;;;;5030189;28;20202;-69
2023/05/25 05:14:20;;;;;;;5.70;4.00;;;8.50;99.90;;;;;;5029469;28;20212;-69
2023/05/25 05:16:47;;;;;;;6.40;3.28;;;8.50;99.90;;;;;;5024438;28;20607;-69
2023/05/25 05:19:13;;;;;;;5.45;3.47;;;8.60;99.90;;;;;;5008936;28;20229;-69
2023/05/25 05:21:41;;;;;;;5.15;3.45;;;8.70;99.90;;;;;;5010132;28;20224;-70
2023/05/25 05:24:08;;;;;;;10.23;3.60;;;8.70;99.90;;;;;;5011716;28;20205;-70
2023/05/25 05:26:35;;;;;;;5.80;3.58;;;8.80;99.90;;;;;;5022056;28;20680;-70
2023/05/25 05:29:03;;;;;;;9.38;3.50;;;8.90;99.90;;;;;;5027754;28;20227;-69
2023/05/25 05:31:30;;;;;;;4.03;2.67;;;8.90;99.90;;;;;;5012101;28;20211;-69
2023/05/25 05:33:57;;;;;;;9.07;3.70;;;9.00;99.90;;;;;;5008584;28;20213;-69
2023/05/25 05:36:24;;;;;;;3.75;3.10;;;9.10;99.90;;;;;;5008266;28;20202;-69
2023/05/25 05:38:52;;;;;;;4.95;3.90;;;9.20;99.90;;;;;;5012539;28;20214;-69
2023/05/25 05:41:18;;;;;;;7.53;3.35;;;9.30;99.90;;;;;;5031638;28;20661;-69
2023/05/25 05:43:45;;;;;;;9.07;3.60;;;9.40;99.90;;;;;;5032995;28;20202;-70
2023/05/25 05:46:12;;;;;;;9.18;3.50;;;9.40;99.90;;;;;;5032227;28;20208;-70
2023/05/25 05:48:39;;;;;;;6.43;3.70;;;9.50;99.90;;;;;;5027555;28;20232;-69
2023/05/25 05:51:06;;;;;;;4.00;2.95;;;9.50;99.90;;;;;;5025175;28;20198;-70
2023/05/25 05:53:34;;;;;;;5.70;3.40;;;9.60;99.90;;;;;;5008956;28;20229;-70
2023/05/25 05:56:02;;;;;;;6.35;3.80;;;9.70;99.90;;;;;;5012715;28;20214;-70
2023/05/25 05:58:31;;;;;;;6.13;3.83;;;9.80;99.90;;;;;;5015006;28;20222;-71
2023/05/25 06:00:58;;;;;;;7.15;4.00;;;9.90;99.90;;;;;;5032820;28;20775;-71
2023/05/25 06:03:27;;;;;;;7.43;3.85;;;9.90;99.90;;;;;;5013902;28;20214;-71
2023/05/25 06:05:54;;;;;;;5.00;3.92;;;10.00;99.90;;;;;;5013073;28;20253;-70
2023/05/25 06:08:21;;;;;;;5.55;3.75;;;10.10;99.90;;;;;;5021734;28;20743;-71
2023/05/25 06:10:47;;;;;;;7.07;4.35;;;10.20;99.90;;;;;;5032104;28;20202;-70
2023/05/25 06:13:15;;;;;;;8.63;4.00;;;10.30;99.90;;;;;;5032144;28;20208;-71
2023/05/25 06:15:42;;;;;;;6.93;3.42;;;10.40;99.90;;;;;;5032619;28;20201;-70
2023/05/25 06:18:09;;;;;;;6.70;3.83;;;10.70;99.90;;;;;;5023624;28;20222;-70
2023/05/25 06:20:36;;;;;;;7.45;3.40;;;10.80;99.90;;;;;;5011999;28;20218;-71
2023/05/25 06:23:03;;;;;;;6.50;3.53;;;11.00;99.90;;;;;;5019745;28;20241;-71
2023/05/25 06:25:29;;;;;;;6.80;3.85;;;11.10;99.90;;;;;;5031302;28;20221;-70
2023/05/25 06:27:56;;;;;;;5.82;3.80;;;11.20;99.90;;;;;;5031905;28;20813;-70
2023/05/25 06:30:25;;;;;;;4.93;3.72;;;11.20;99.90;;;;;;5031173;28;20210;-70
2023/05/25 06:32:51;;;;;;;5.25;3.90;;;11.30;99.90;;;;;;5031496;28;20216;-70
2023/05/25 06:35:19;;;;;;;7.40;4.10;;;11.30;99.90;;;;;;5031692;28;20205;-70
2023/05/25 06:37:47;;;;;;;7.40;3.30;;;11.40;99.90;;;;;;5031997;28;20217;-70
2023/05/25 06:40:14;;;;;;;5.43;3.75;;;11.50;99.90;;;;;;5030770;28;20704;-70
2023/05/25 06:42:40;;;;;;;10.27;4.30;;;11.60;99.90;;;;;;5019766;28;20329;-70
2023/05/25 06:45:08;;;;;;;9.82;4.10;;;11.60;99.90;;;;;;5011659;28;20233;-70
2023/05/25 06:47:36;;;;;;;7.95;5.22;;;11.70;99.90;;;;;;5011097;28;20225;-70
2023/05/25 06:50:04;;;;;;;8.20;3.75;;;11.70;99.90;;;;;;5011594;28;20202;-70
2023/05/25 06:52:30;;;;;;;4.20;3.80;;;11.70;99.90;;;;;;5011169;28;20207;-70
2023/05/25 06:54:57;;;;;;;3.92;3.17;;;11.80;99.90;;;;;;5012078;28;20237;-70
2023/05/25 06:57:24;;;;;;;6.50;4.00;;;11.90;99.90;;;;;;5011610;28;20218;-70
2023/05/25 06:59:51;;;;;;;5.65;3.35;;;12.00;99.90;;;;;;5009048;28;20734;-70
2023/05/25 07:02:19;;;;;;;4.40;3.80;;;12.10;99.90;;;;;;5011378;28;20203;-70
2023/05/25 07:04:47;;;;;;;6.50;3.50;;;12.30;99.90;;;;;;5006718;28;20461;-70
2023/05/25 07:07:14;;;;;;;9.70;5.07;;;12.50;99.90;;;;;;5011416;28;20484;-70
2023/05/25 07:09:41;;;;;;;14.00;4.70;;;12.50;99.90;;;;;;5011289;28;20536;-70
2023/05/25 07:12:09;;;;;;;6.97;3.63;;;12.60;99.90;;;;;;5011752;28;20465;-70
2023/05/25 07:14:36;;;;;;;5.33;3.53;;;12.70;99.90;;;;;;5011241;28;20480;-70
2023/05/25 07:17:03;;;;;;;6.85;4.25;;;12.80;99.90;;;;;;5011723;28;21065;-70
2023/05/25 07:19:29;;;;;;;8.00;4.00;;;12.70;99.90;;;;;;5010766;28;20206;-70
2023/05/25 07:21:58;;;;;;;6.23;4.07;;;12.70;99.90;;;;;;5011287;28;20952;-70
2023/05/25 07:24:24;;;;;;;6.40;3.93;;;12.70;99.90;;;;;;5011122;28;20895;-70
2023/05/25 07:26:51;;;;;;;4.83;3.70;;;12.80;99.90;;;;;;5011584;28;20492;-70
2023/05/25 07:29:18;;;;;;;5.10;4.15;;;12.80;99.90;;;;;;5010423;28;20472;-70
2023/05/25 07:31:44;;;;;;;7.07;4.30;;;13.00;99.90;;;;;;5011412;28;20199;-70
2023/05/25 07:34:11;;;;;;;4.20;3.80;;;13.10;99.90;;;;;;5006777;28;20987;-70
2023/05/25 07:36:38;;;;;;;11.30;4.10;;;13.20;99.90;;;;;;5010734;28;20910;-70
2023/05/25 07:39:07;;;;;;;10.23;4.23;;;13.20;99.90;;;;;;5010708;28;20461;-70
2023/05/25 07:41:34;;;;;;;8.23;4.80;;;13.20;99.90;;;;;;5010632;28;20564;-70
2023/05/25 07:44:01;;;;;;;5.33;3.77;;;13.30;99.90;;;;;;5010739;28;20472;-70
2023/05/25 07:46:28;;;;;;;7.30;3.93;;;13.20;99.90;;;;;;5010693;28;20468;-70
2023/05/25 07:48:57;;;;;;;9.90;4.97;;;13.30;99.90;;;;;;5010689;28;20465;-70
2023/05/25 07:51:25;;;;;;;8.00;4.80;;;13.40;99.90;;;;;;5010609;28;20923;-70
2023/05/25 07:53:52;;;;;;;8.60;4.57;;;13.50;99.90;;;;;;5010874;28;20553;-70
2023/05/25 07:56:21;;;;;;;7.83;4.63;;;13.60;99.90;;;;;;5010716;28;20500;-70
2023/05/25 07:58:48;;;;;;;9.40;4.00;;;13.80;99.90;;;;;;5010379;28;20519;-70
2023/05/25 08:01:16;;;;;;;7.10;4.87;;;14.10;99.90;;;;;;5010657;28;21023;-70
2023/05/25 08:03:43;;;;;;;9.50;4.00;;;14.40;99.90;;;;;;5010606;28;20461;-71
2023/05/25 08:06:11;;;;;;;5.80;3.60;;;14.50;99.90;;;;;;5010989;28;20461;-71
2023/05/25 08:08:37;;;;;;;4.90;3.90;;;14.60;99.90;;;;;;5009618;28;20519;-70
2023/05/25 08:11:04;;;;;;;5.70;4.10;;;14.60;99.90;;;;;;5010813;28;20506;-70
2023/05/25 08:13:32;;;;;;;5.47;4.10;;;14.60;99.90;;;;;;5010348;28;20472;-70
2023/05/25 08:15:59;;;;;;;4.43;3.73;;;14.70;99.90;;;;;;5010601;28;20465;-70
2023/05/25 08:18:26;;;;;;;4.47;3.70;;;14.70;99.90;;;;;;5009930;28;20485;-70
2023/05/25 08:20:52;;;;;;;7.10;4.97;;;14.80;99.90;;;;;;5010198;28;20484;-70
2023/05/25 08:23:19;;;;;;;7.83;4.20;;;14.80;99.90;;;;;;5018968;28;20837;-70
2023/05/25 08:25:46;;;;;;;5.83;4.30;;;15.00;99.90;;;;;;5026267;28;20476;-70
2023/05/25 08:28:12;;;;;;;8.37;3.63;;;15.20;99.90;;;;;;5010346;28;21216;-70
2023/05/25 08:30:42;;;;;;;5.83;3.83;;;15.40;99.90;;;;;;5009757;28;21035;-70
2023/05/25 08:33:09;;;;;;;5.53;3.83;;;15.50;99.90;;;;;;5010633;28;20462;-71
2023/05/25 08:35:38;;;;;;;10.20;4.67;;;15.80;99.90;;;;;;5009359;28;23161;-70
2023/05/25 08:38:04;;;;;;;5.63;3.93;;;15.90;99.90;;;;;;5016804;28;20480;-70
2023/05/25 08:40:31;;;;;;;7.57;5.30;;;16.00;99.90;;;;;;5029211;28;20479;-71
2023/05/25 08:42:58;;;;;;;6.83;3.77;;;16.00;99.90;;;;;;5030081;28;20972;-70
2023/05/25 08:45:25;;;;;;;7.43;4.07;;;15.90;99.90;;;;;;5012319;28;20516;-70
2023/05/25 08:47:58;;;;;;;5.73;4.40;;;16.10;99.90;;;;;;5010282;28;20481;-70
2023/05/25 08:50:26;;;;;;;6.27;4.50;;;16.30;99.90;;;;;;5009702;28;20461;-70
2023/05/25 08:52:55;;;;;;;4.60;4.10;;;16.40;99.90;;;;;;5015305;28;20475;-70
2023/05/25 08:55:26;;;;;;;6.60;4.53;;;16.40;99.90;;;;;;5029540;28;20835;-70
2023/05/25 08:57:55;;;;;;;6.70;4.47;;;16.40;99.90;;;;;;5029835;28;20476;-70
2023/05/25 09:00:26;;;;;;;5.90;4.47;;;16.40;99.90;;;;;;5028835;28;20541;-70
2023/05/25 09:02:59;;;;;;;4.53;4.00;;;16.60;99.90;;;;;;5010235;28;21048;-70
2023/05/25 09:05:26;;;;;;;4.90;3.83;;;16.80;99.90;;;;;;5010670;28;20836;-70
2023/05/25 09:07:53;;;;;;;7.37;5.10;;;16.90;99.90;;;;;;5029396;28;20477;-70
2023/05/25 09:10:21;;;;;;;8.50;5.30;;;17.00;99.90;;;;;;5021241;28;20500;-70
2023/05/25 09:12:50;;;;;;;5.60;4.50;;;17.10;99.90;;;;;;4995279;28;20461;-70
2023/05/25 09:15:17;;;;;;;7.30;4.67;;;17.10;99.90;;;;;;5007365;28;20458;-70
2023/05/25 09:17:43;;;;;;;6.97;4.73;;;17.20;99.90;;;;;;5008681;28;20864;-70
2023/05/25 09:20:13;;;;;;;7.47;4.63;;;17.20;99.90;;;;;;5009186;28;20949;-70
2023/05/25 09:22:40;;;;;;;9.90;4.70;;;17.40;99.90;;;;;;5013311;28;20504;-70
2023/05/25 09:25:10;;;;;;;7.63;4.77;;;17.70;99.90;;;;;;5013164;28;20949;-70
2023/05/25 09:27:37;;;;;;;9.23;4.70;;;18.10;99.90;;;;;;5012937;28;20524;-70
2023/05/25 09:30:05;;;;;;;7.60;4.87;;;18.50;99.90;;;;;;5013035;28;20480;-71
2023/05/25 09:32:32;;;;;;;8.50;4.43;;;18.90;99.90;;;;;;5011087;28;20459;-70
2023/05/25 09:35:07;;;;;;;6.23;4.70;;;19.10;99.90;;;;;;5032771;28;20471;-70
2023/05/25 09:37:36;;;;;;;5.67;4.63;;;19.40;99.90;;;;;;5031195;28;20511;-70
2023/05/25 09:40:04;;;;;;;9.67;4.90;;;19.60;99.90;;;;;;5012911;28;20536;-70
2023/05/25 09:42:31;;;;;;;8.43;4.60;;;19.50;99.90;;;;;;5013160;28;20519;-71
2023/05/25 09:44:58;;;;;;;7.53;4.70;;;19.40;99.90;;;;;;5013103;28;20456;-70
2023/05/25 09:47:25;;;;;;;4.97;4.47;;;19.30;99.90;;;;;;5013066;28;20515;-70
2023/05/25 09:49:52;;;;;;;8.03;4.73;;;19.10;99.90;;;;;;5012776;28;20685;-70
2023/05/25 09:52:19;;;;;;;6.90;4.20;;;18.90;99.90;;;;;;5013046;28;20960;-70
2023/05/25 09:54:48;;;;;;;5.23;4.10;;;19.10;99.90;;;;;;5013145;28;20468;-70
2023/05/25 09:57:15;;;;;;;8.40;4.67;;;19.20;99.90;;;;;;5012938;28;20485;-70
2023/05/25 09:59:44;;;;;;;5.77;4.93;;;19.30;99.90;;;;;;5031681;28;20488;-70
2023/05/25 10:02:11;;;;;;;6.73;4.23;;;19.50;99.90;;;;;;5032436;28;20480;-70
2023/05/25 10:04:37;;;;;;;5.10;4.20;;;20.00;99.90;;;;;;5032069;28;20464;-70
2023/05/25 10:07:05;;;;;;;4.93;4.27;;;20.40;99.90;;;;;;5032235;28;20491;-70
2023/05/25 10:09:35;;;;;;;6.03;4.60;;;20.50;99.90;;;;;;5031875;28;20468;-70
2023/05/25 10:12:04;;;;;;;6.07;4.67;;;20.60;99.90;;;;;;5032408;28;20974;-70
2023/05/25 10:14:32;;;;;;;5.60;4.00;;;20.80;99.90;;;;;;5032341;28;20893;-70
2023/05/25 10:17:02;;;;;;;5.43;4.80;;;21.00;99.90;;;;;;5032249;28;20593;-70
2023/05/25 10:19:35;;;;;;;6.70;4.07;;;21.00;99.90;;;;;;5020990;28;20466;-69
2023/05/25 10:22:08;;;;;;;6.27;5.50;;;21.10;99.90;;;;;;5003657;28;20565;-70
2023/05/25 10:24:42;;;;;;;6.87;4.00;;;20.90;99.90;;;;;;5006703;28;20532;-70
2023/05/25 10:27:15;;;;;;;5.37;4.10;;;20.80;99.90;;;;;;5005521;28;21011;-70
2023/05/25 10:29:44;;;;;;;5.03;3.90;;;20.80;99.90;;;;;;5005776;28;20465;-70
2023/05/25 10:32:11;;;;;;;5.10;3.80;;;20.80;99.90;;;;;;5006074;28;20464;-70
2023/05/25 10:34:38;;;;;;;6.67;4.60;;;20.60;99.90;;;;;;5012111;28;20465;-70
2023/05/25 10:37:06;;;;;;;5.43;4.27;;;20.30;99.90;;;;;;5011654;28;20857;-70
2023/05/25 10:39:34;;;;;;;5.50;4.53;;;20.20;99.90;;;;;;5011452;28;20898;-70
2023/05/25 10:42:02;;;;;;;6.17;4.47;;;20.20;99.90;;;;;;5011983;28;20488;-70
2023/05/25 10:44:30;;;;;;;6.17;4.37;;;20.50;99.90;;;;;;5011949;28;20468;-70
2023/05/25 10:46:58;;;;;;;5.10;4.07;;;20.90;99.90;;;;;;5016528;28;20480;-70
2023/05/25 10:49:32;;;;;;;6.20;4.80;;;20.80;99.90;;;;;;5031065;28;20547;-70
2023/05/25 10:52:01;;;;;;;9.43;4.50;;;20.60;99.90;;;;;;5031846;28;20484;-70
2023/05/25 10:54:31;;;;;;;4.53;4.13;;;20.70;99.90;;;;;;5031457;28;20514;-70
2023/05/25 10:57:17;;;;;;;5.23;4.13;;;20.70;99.90;;;;;;5027112;28;20516;-70
2023/05/25 10:59:49;;;;;;;4.67;4.23;;;20.60;99.90;;;;;;5010864;28;20461;-70
2023/05/25 11:02:16;;;;;;;4.97;4.13;;;20.60;99.90;;;;;;5011614;28;20516;-70
2023/05/25 11:04:43;;;;;;;6.13;4.50;;;20.40;99.90;;;;;;5011677;28;20469;-70
2023/05/25 11:07:15;;;;;;;8.43;4.53;;;20.60;99.90;;;;;;5011553;28;20485;-70
2023/05/25 11:09:43;;;;;;;4.53;4.13;;;20.60;99.90;;;;;;5011140;28;20552;-70
2023/05/25 11:12:21;;;;;;;6.13;4.03;;;20.60;99.90;;;;;;5011927;28;20461;-70
2023/05/25 11:15:10;;;;;;;6.80;4.10;;;20.70;99.90;;;;;;5011414;28;20489;-70
2023/05/25 11:17:45;;;;;;;4.70;4.00;;;20.70;99.90;;;;;;5011282;28;20481;-70
2023/05/25 11:20:22;;;;;;;5.07;4.40;;;20.50;99.90;;;;;;5017386;28;20883;-70
2023/05/25 11:22:51;;;;;;;7.30;4.40;;;20.60;99.90;;;;;;5030632;28;21009;-70
2023/05/25 11:25:42;;;;;;;6.00;3.77;;;20.50;99.90;;;;;;5023699;28;20497;-71
2023/05/25 11:28:10;;;;;;;7.43;4.00;;;20.40;99.90;;;;;;5011384;28;20481;-70
2023/05/25 11:30:39;;;;;;;5.00;4.40;;;20.30;99.90;;;;;;5011302;28;20477;-70
2023/05/25 11:33:07;;;;;;;7.70;3.80;;;20.40;99.90;;;;;;5011519;28;20457;-72
2023/05/25 11:35:35;;;;;;;4.57;4.17;;;20.40;99.90;;;;;;5020674;28;20472;-71
2023/05/25 11:38:06;;;;;;;8.47;4.40;;;20.40;99.90;;;;;;5030358;28;20488;-71
2023/05/25 11:40:33;;;;;;;7.37;4.63;;;20.60;99.90;;;;;;5030165;28;20901;-71
2023/05/25 11:43:00;;;;;;;5.90;3.93;;;20.70;99.90;;;;;;5011365;28;20473;-70
2023/05/25 11:45:29;;;;;;;4.30;3.57;;;20.60;99.90;;;;;;5011534;28;20511;-70
2023/05/25 11:47:57;;;;;;;4.47;3.53;;;20.60;99.90;;;;;;5011730;28;20481;-71
2023/05/25 11:50:24;;;;;;;5.07;3.93;;;20.60;99.90;;;;;;5010967;28;20465;-69
2023/05/25 11:52:51;;;;;;;5.00;4.00;;;20.70;99.90;;;;;;5011240;28;20545;-69
2023/05/25 11:55:18;;;;;;;5.40;4.23;;;20.80;99.90;;;;;;5011336;28;20549;-69
2023/05/25 11:57:45;;;;;;;6.60;4.57;;;20.80;99.90;;;;;;5013762;28;20633;-69
2023/05/25 12:00:12;;;;;;;6.43;3.90;;;20.70;99.90;;;;;;5010176;28;20877;-69
2023/05/25 12:02:42;;;;;;;5.13;3.50;;;20.50;99.90;;;;;;5017667;28;20520;-69
2023/05/25 12:05:10;;;;;;;5.87;4.03;;;20.40;99.90;;;;;;5010254;28;20473;-69
2023/05/25 12:07:43;;;;;;;4.23;3.83;;;20.50;99.90;;;;;;5010370;28;20531;-69
2023/05/25 12:10:12;;;;;;;4.60;4.20;;;20.60;99.90;;;;;;5020542;28;20473;-69
2023/05/25 12:12:42;;;;;;;6.40;4.37;;;20.70;99.90;;;;;;5009270;28;20516;-70
2023/05/25 12:15:10;;;;;;;6.00;3.90;;;20.80;99.90;;;;;;5009390;28;20469;-70
2023/05/25 12:17:40;;;;;;;6.03;4.10;;;20.80;99.90;;;;;;5010184;28;20524;-70
2023/05/25 12:20:10;;;;;;;6.20;4.20;;;20.80;99.90;;;;;;5010171;28;20999;-69
2023/05/25 12:22:38;;;;;;;4.10;3.50;;;20.90;99.90;;;;;;5027440;28;20889;-69
2023/05/25 12:25:06;;;;;;;5.60;4.30;;;20.90;99.90;;;;;;5029977;28;20464;-69
2023/05/25 12:27:33;;;;;;;6.23;4.40;;;21.10;99.90;;;;;;5029418;28;20491;-69
2023/05/25 12:30:00;;;;;;;4.70;3.67;;;21.20;99.90;;;;;;5029493;28;20882;-69
2023/05/25 12:32:26;;;;;;;4.03;3.63;;;21.40;99.90;;;;;;5028838;28;20507;-69
2023/05/25 12:35:02;;;;;;;7.80;4.20;;;21.30;99.90;;;;;;5029212;28;20837;-69
2023/05/25 12:37:30;;;;;;;5.20;3.80;;;21.30;99.90;;;;;;5029058;28;20476;-69
2023/05/25 12:39:57;;;;;;;5.30;3.70;;;21.40;99.90;;;;;;5001557;28;20610;-69
2023/05/25 12:42:26;;;;;;;6.00;3.70;;;21.50;99.90;;;;;;5010144;28;20477;-69
2023/05/25 12:44:56;;;;;;;4.10;3.73;;;21.90;99.90;;;;;;5020585;28;20501;-69
2023/05/25 12:47:26;;;;;;;4.27;3.70;;;22.20;99.90;;;;;;5022832;28;20481;-69
2023/05/25 12:50:09;;;;;;;5.20;3.93;;;22.40;99.90;;;;;;5008627;28;20537;-69
2023/05/25 12:52:39;;;;;;;4.83;3.63;;;22.20;99.90;;;;;;5010032;28;20495;-69
2023/05/25 12:55:28;;;;;;;6.53;4.30;;;22.00;99.90;;;;;;5010498;28;20472;-69